sensor_id;sensor_type;location;lat;lon;timestamp;P1;durP1;ratioP1;P2;durP2;ratioP2
23078;SDS011;11707;50.830;4.364;2022-11-12T00:00:45;7.22;;;6.28;;
23078;SDS011;11707;50.830;4.364;2022-11-12T00:03:12;9.32;;;5.53;;
23078;SDS011;11707;50.830;4.364;2022-11-12T00:05:38;9.18;;;5.53;;
23078;SDS011;11707;50.830;4.364;2022-11-12T00:08:04;7.25;;;5.63;;
23078;SDS011;11707;50.830;4.364;2022-11-12T00:10:30;10.75;;;6.25;;
23078;SDS011;11707;50.830;4.364;2022-11-12T00:12:56;8.13;;;5.40;;
23078;SDS011;11707;50.830;4.364;2022-11-12T00:15:22;9.95;;;5.70;;
23078;SDS011;11707;50.830;4.364;2022-11-12T00:17:47;7.05;;;5.38;;
23078;SDS011;11707;50.830;4.364;2022-11-12T00:20:13;7.78;;;5.70;;
23078;SDS011;11707;50.830;4.364;2022-11-12T00:22:39;11.00;;;5.07;;
23078;SDS011;11707;50.830;4.364;2022-11-12T00:25:06;7.90;;;5.03;;
23078;SDS011;11707;50.830;4.364;2022-11-12T00:27:32;7.05;;;5.40;;
23078;SDS011;11707;50.830;4.364;2022-11-12T00:29:58;8.05;;;5.32;;
23078;SDS011;11707;50.830;4.364;2022-11-12T00:32:25;8.95;;;5.68;;
23078;SDS011;11707;50.830;4.364;2022-11-12T00:34:51;9.63;;;5.28;;
23078;SDS011;11707;50.830;4.364;2022-11-12T00:37:16;7.43;;;5.38;;
23078;SDS011;11707;50.830;4.364;2022-11-12T00:39:43;8.98;;;5.40;;
23078;SDS011;11707;50.830;4.364;2022-11-12T00:42:09;7.30;;;4.90;;
23078;SDS011;11707;50.830;4.364;2022-11-12T00:44:35;7.03;;;5.30;;
23078;SDS011;11707;50.830;4.364;2022-11-12T00:47:01;6.28;;;4.72;;
23078;SDS011;11707;50.830;4.364;2022-11-12T00:49:26;7.28;;;5.07;;
23078;SDS011;11707;50.830;4.364;2022-11-12T00:51:52;5.78;;;4.93;;
23078;SDS011;11707;50.830;4.364;2022-11-12T00:54:17;5.32;;;4.38;;
23078;SDS011;11707;50.830;4.364;2022-11-12T00:56:44;6.97;;;4.35;;
23078;SDS011;11707;50.830;4.364;2022-11-12T00:59:11;8.60;;;4.18;;
23078;SDS011;11707;50.830;4.364;2022-11-12T01:01:37;4.18;;;3.67;;
23078;SDS011;11707;50.830;4.364;2022-11-12T01:04:04;5.68;;;3.90;;
23078;SDS011;11707;50.830;4.364;2022-11-12T01:06:30;4.75;;;3.75;;
23078;SDS011;11707;50.830;4.364;2022-11-12T01:08:56;6.72;;;4.45;;
23078;SDS011;11707;50.830;4.364;2022-11-12T01:11:26;4.07;;;3.35;;
23078;SDS011;11707;50.830;4.364;2022-11-12T01:13:54;6.25;;;3.90;;
23078;SDS011;11707;50.830;4.364;2022-11-12T01:16:26;6.78;;;4.60;;
23078;SDS011;11707;50.830;4.364;2022-11-12T01:18:56;6.68;;;4.32;;
23078;SDS011;11707;50.830;4.364;2022-11-12T01:21:24;9.60;;;5.10;;
23078;SDS011;11707;50.830;4.364;2022-11-12T01:23:51;5.78;;;4.38;;
23078;SDS011;11707;50.830;4.364;2022-11-12T01:26:18;5.07;;;3.83;;
23078;SDS011;11707;50.830;4.364;2022-11-12T01:28:45;6.00;;;3.83;;
23078;SDS011;11707;50.830;4.364;2022-11-12T01:31:21;5.63;;;4.10;;
23078;SDS011;11707;50.830;4.364;2022-11-12T01:33:58;5.88;;;4.50;;
23078;SDS011;11707;50.830;4.364;2022-11-12T01:36:26;5.88;;;4.10;;
23078;SDS011;11707;50.830;4.364;2022-11-12T01:38:54;5.10;;;4.25;;
23078;SDS011;11707;50.830;4.364;2022-11-12T01:41:22;5.35;;;4.00;;
23078;SDS011;11707;50.830;4.364;2022-11-12T01:49:35;4.88;;;3.80;;
23078;SDS011;11707;50.830;4.364;2022-11-12T01:54:50;6.15;;;4.13;;
23078;SDS011;11707;50.830;4.364;2022-11-12T01:57:20;5.90;;;4.95;;
23078;SDS011;11707;50.830;4.364;2022-11-12T01:59:51;6.07;;;4.28;;
23078;SDS011;11707;50.830;4.364;2022-11-12T02:02:21;5.30;;;3.92;;
23078;SDS011;11707;50.830;4.364;2022-11-12T02:04:48;4.85;;;3.92;;
23078;SDS011;11707;50.830;4.364;2022-11-12T02:07:14;6.05;;;4.18;;
23078;SDS011;11707;50.830;4.364;2022-11-12T02:09:41;6.15;;;4.47;;
23078;SDS011;11707;50.830;4.364;2022-11-12T02:12:07;4.93;;;4.05;;
23078;SDS011;11707;50.830;4.364;2022-11-12T02:14:52;6.80;;;4.35;;
23078;SDS011;11707;50.830;4.364;2022-11-12T02:17:18;7.68;;;4.15;;
23078;SDS011;11707;50.830;4.364;2022-11-12T02:19:45;7.60;;;4.30;;
23078;SDS011;11707;50.830;4.364;2022-11-12T02:22:11;5.47;;;4.20;;
23078;SDS011;11707;50.830;4.364;2022-11-12T02:24:37;4.32;;;3.47;;
23078;SDS011;11707;50.830;4.364;2022-11-12T02:27:03;7.10;;;3.88;;
23078;SDS011;11707;50.830;4.364;2022-11-12T02:29:30;6.13;;;3.92;;
23078;SDS011;11707;50.830;4.364;2022-11-12T02:31:56;6.03;;;4.18;;
23078;SDS011;11707;50.830;4.364;2022-11-12T02:34:22;5.88;;;4.47;;
23078;SDS011;11707;50.830;4.364;2022-11-12T02:36:47;6.35;;;4.15;;
23078;SDS011;11707;50.830;4.364;2022-11-12T02:39:13;5.10;;;3.97;;
23078;SDS011;11707;50.830;4.364;2022-11-12T02:41:39;5.88;;;4.20;;
23078;SDS011;11707;50.830;4.364;2022-11-12T02:44:04;5.75;;;4.40;;
23078;SDS011;11707;50.830;4.364;2022-11-12T02:46:30;6.75;;;4.57;;
23078;SDS011;11707;50.830;4.364;2022-11-12T02:48:56;7.40;;;4.60;;
23078;SDS011;11707;50.830;4.364;2022-11-12T02:51:21;6.53;;;4.70;;
23078;SDS011;11707;50.830;4.364;2022-11-12T02:53:47;5.40;;;4.25;;
23078;SDS011;11707;50.830;4.364;2022-11-12T02:56:13;6.53;;;4.55;;
23078;SDS011;11707;50.830;4.364;2022-11-12T02:58:38;8.90;;;4.75;;
23078;SDS011;11707;50.830;4.364;2022-11-12T03:01:04;7.63;;;4.95;;
23078;SDS011;11707;50.830;4.364;2022-11-12T03:03:30;6.97;;;5.40;;
23078;SDS011;11707;50.830;4.364;2022-11-12T03:05:56;6.85;;;4.30;;
23078;SDS011;11707;50.830;4.364;2022-11-12T03:08:23;6.38;;;4.47;;
23078;SDS011;11707;50.830;4.364;2022-11-12T03:10:50;6.20;;;4.30;;
23078;SDS011;11707;50.830;4.364;2022-11-12T03:13:16;5.97;;;4.75;;
23078;SDS011;11707;50.830;4.364;2022-11-12T03:15:42;6.40;;;5.18;;
23078;SDS011;11707;50.830;4.364;2022-11-12T03:18:07;5.93;;;4.75;;
23078;SDS011;11707;50.830;4.364;2022-11-12T03:20:33;6.32;;;4.75;;
23078;SDS011;11707;50.830;4.364;2022-11-12T03:23:00;6.38;;;4.70;;
23078;SDS011;11707;50.830;4.364;2022-11-12T03:25:27;6.35;;;4.43;;
23078;SDS011;11707;50.830;4.364;2022-11-12T03:30:23;7.30;;;4.97;;
23078;SDS011;11707;50.830;4.364;2022-11-12T03:32:50;7.45;;;5.15;;
23078;SDS011;11707;50.830;4.364;2022-11-12T03:35:16;6.60;;;5.10;;
23078;SDS011;11707;50.830;4.364;2022-11-12T03:37:42;6.38;;;4.70;;
23078;SDS011;11707;50.830;4.364;2022-11-12T03:40:07;7.13;;;4.88;;
23078;SDS011;11707;50.830;4.364;2022-11-12T03:42:33;5.70;;;4.18;;
23078;SDS011;11707;50.830;4.364;2022-11-12T03:44:59;6.82;;;4.68;;
23078;SDS011;11707;50.830;4.364;2022-11-12T03:47:25;6.78;;;4.63;;
23078;SDS011;11707;50.830;4.364;2022-11-12T03:49:50;5.50;;;4.20;;
23078;SDS011;11707;50.830;4.364;2022-11-12T03:52:16;6.22;;;3.80;;
23078;SDS011;11707;50.830;4.364;2022-11-12T03:54:41;8.68;;;4.65;;
23078;SDS011;11707;50.830;4.364;2022-11-12T03:57:07;9.68;;;4.68;;
23078;SDS011;11707;50.830;4.364;2022-11-12T03:59:33;6.70;;;4.35;;
23078;SDS011;11707;50.830;4.364;2022-11-12T04:01:59;8.25;;;4.97;;
23078;SDS011;11707;50.830;4.364;2022-11-12T04:04:24;7.38;;;4.93;;
23078;SDS011;11707;50.830;4.364;2022-11-12T04:07:10;6.32;;;5.35;;
23078;SDS011;11707;50.830;4.364;2022-11-12T04:09:54;7.68;;;5.65;;
23078;SDS011;11707;50.830;4.364;2022-11-12T04:12:20;12.25;;;10.35;;
23078;SDS011;11707;50.830;4.364;2022-11-12T04:15:18;15.77;;;10.60;;
23078;SDS011;11707;50.830;4.364;2022-11-12T04:17:43;9.50;;;6.47;;
23078;SDS011;11707;50.830;4.364;2022-11-12T04:23:11;7.47;;;4.25;;
23078;SDS011;11707;50.830;4.364;2022-11-12T04:25:38;5.03;;;4.05;;
23078;SDS011;11707;50.830;4.364;2022-11-12T04:28:23;7.03;;;4.47;;
23078;SDS011;11707;50.830;4.364;2022-11-12T04:30:48;6.90;;;4.60;;
23078;SDS011;11707;50.830;4.364;2022-11-12T04:33:14;8.40;;;4.80;;
23078;SDS011;11707;50.830;4.364;2022-11-12T04:35:40;6.80;;;5.00;;
23078;SDS011;11707;50.830;4.364;2022-11-12T04:38:05;8.43;;;5.05;;
23078;SDS011;11707;50.830;4.364;2022-11-12T04:40:31;6.28;;;4.63;;
23078;SDS011;11707;50.830;4.364;2022-11-12T04:46:00;5.13;;;3.83;;
23078;SDS011;11707;50.830;4.364;2022-11-12T04:48:26;5.53;;;4.22;;
23078;SDS011;11707;50.830;4.364;2022-11-12T04:50:53;6.93;;;4.75;;
23078;SDS011;11707;50.830;4.364;2022-11-12T04:53:21;5.60;;;4.63;;
23078;SDS011;11707;50.830;4.364;2022-11-12T04:55:48;9.95;;;5.20;;
23078;SDS011;11707;50.830;4.364;2022-11-12T04:58:18;7.32;;;4.88;;
23078;SDS011;11707;50.830;4.364;2022-11-12T05:00:45;6.57;;;4.13;;
23078;SDS011;11707;50.830;4.364;2022-11-12T05:03:12;5.95;;;4.15;;
23078;SDS011;11707;50.830;4.364;2022-11-12T05:05:37;7.53;;;4.70;;
23078;SDS011;11707;50.830;4.364;2022-11-12T05:08:03;9.00;;;5.00;;
23078;SDS011;11707;50.830;4.364;2022-11-12T05:10:29;6.25;;;4.43;;
23078;SDS011;11707;50.830;4.364;2022-11-12T05:12:55;6.15;;;4.53;;
23078;SDS011;11707;50.830;4.364;2022-11-12T05:15:21;6.05;;;4.15;;
23078;SDS011;11707;50.830;4.364;2022-11-12T05:17:47;5.85;;;4.65;;
23078;SDS011;11707;50.830;4.364;2022-11-12T05:20:13;6.55;;;4.43;;
23078;SDS011;11707;50.830;4.364;2022-11-12T05:22:39;6.95;;;4.63;;
23078;SDS011;11707;50.830;4.364;2022-11-12T05:25:05;7.63;;;4.45;;
23078;SDS011;11707;50.830;4.364;2022-11-12T05:27:32;6.40;;;4.43;;
23078;SDS011;11707;50.830;4.364;2022-11-12T05:29:58;7.05;;;4.50;;
23078;SDS011;11707;50.830;4.364;2022-11-12T05:32:24;4.88;;;3.80;;
23078;SDS011;11707;50.830;4.364;2022-11-12T05:34:50;5.75;;;4.28;;
23078;SDS011;11707;50.830;4.364;2022-11-12T05:37:16;8.77;;;4.57;;
23078;SDS011;11707;50.830;4.364;2022-11-12T05:39:42;6.13;;;4.32;;
23078;SDS011;11707;50.830;4.364;2022-11-12T05:42:07;7.53;;;4.22;;
23078;SDS011;11707;50.830;4.364;2022-11-12T05:44:33;6.70;;;4.25;;
23078;SDS011;11707;50.830;4.364;2022-11-12T05:46:59;8.85;;;4.65;;
23078;SDS011;11707;50.830;4.364;2022-11-12T05:49:25;5.30;;;4.38;;
23078;SDS011;11707;50.830;4.364;2022-11-12T05:51:50;9.35;;;4.60;;
23078;SDS011;11707;50.830;4.364;2022-11-12T05:54:16;6.32;;;5.00;;
23078;SDS011;11707;50.830;4.364;2022-11-12T05:56:43;10.77;;;4.85;;
23078;SDS011;11707;50.830;4.364;2022-11-12T05:59:11;6.05;;;4.40;;
23078;SDS011;11707;50.830;4.364;2022-11-12T06:01:37;10.35;;;4.80;;
23078;SDS011;11707;50.830;4.364;2022-11-12T06:04:12;6.82;;;4.53;;
23078;SDS011;11707;50.830;4.364;2022-11-12T06:06:42;7.13;;;4.70;;
23078;SDS011;11707;50.830;4.364;2022-11-12T06:09:08;5.95;;;4.97;;
23078;SDS011;11707;50.830;4.364;2022-11-12T06:11:34;5.63;;;4.60;;
23078;SDS011;11707;50.830;4.364;2022-11-12T06:14:00;5.30;;;4.10;;
23078;SDS011;11707;50.830;4.364;2022-11-12T06:16:27;6.75;;;4.50;;
23078;SDS011;11707;50.830;4.364;2022-11-12T06:18:53;7.07;;;4.50;;
23078;SDS011;11707;50.830;4.364;2022-11-12T06:21:19;6.55;;;5.15;;
23078;SDS011;11707;50.830;4.364;2022-11-12T06:23:49;7.72;;;4.75;;
23078;SDS011;11707;50.830;4.364;2022-11-12T06:26:16;6.68;;;5.10;;
23078;SDS011;11707;50.830;4.364;2022-11-12T06:28:42;7.40;;;5.13;;
23078;SDS011;11707;50.830;4.364;2022-11-12T06:31:08;8.25;;;5.28;;
23078;SDS011;11707;50.830;4.364;2022-11-12T06:33:33;8.02;;;4.88;;
23078;SDS011;11707;50.830;4.364;2022-11-12T06:36:00;6.45;;;4.97;;
23078;SDS011;11707;50.830;4.364;2022-11-12T06:38:37;12.35;;;6.72;;
23078;SDS011;11707;50.830;4.364;2022-11-12T06:41:04;6.57;;;5.45;;
23078;SDS011;11707;50.830;4.364;2022-11-12T06:43:31;7.22;;;5.18;;
23078;SDS011;11707;50.830;4.364;2022-11-12T06:46:01;7.30;;;4.80;;
23078;SDS011;11707;50.830;4.364;2022-11-12T06:48:28;6.93;;;4.95;;
23078;SDS011;11707;50.830;4.364;2022-11-12T06:50:54;9.02;;;4.93;;
23078;SDS011;11707;50.830;4.364;2022-11-12T06:53:21;11.50;;;5.82;;
23078;SDS011;11707;50.830;4.364;2022-11-12T06:55:47;9.02;;;5.53;;
23078;SDS011;11707;50.830;4.364;2022-11-12T06:58:13;7.18;;;5.28;;
23078;SDS011;11707;50.830;4.364;2022-11-12T07:00:38;6.63;;;5.22;;
23078;SDS011;11707;50.830;4.364;2022-11-12T07:03:07;9.35;;;5.40;;
23078;SDS011;11707;50.830;4.364;2022-11-12T07:05:34;7.03;;;4.88;;
23078;SDS011;11707;50.830;4.364;2022-11-12T07:08:02;7.15;;;5.55;;
23078;SDS011;11707;50.830;4.364;2022-11-12T07:10:29;7.70;;;6.03;;
23078;SDS011;11707;50.830;4.364;2022-11-12T07:12:54;8.30;;;5.45;;
23078;SDS011;11707;50.830;4.364;2022-11-12T07:15:20;7.43;;;5.10;;
23078;SDS011;11707;50.830;4.364;2022-11-12T07:17:46;6.40;;;5.05;;
23078;SDS011;11707;50.830;4.364;2022-11-12T07:20:11;7.50;;;5.25;;
23078;SDS011;11707;50.830;4.364;2022-11-12T07:22:37;6.88;;;5.55;;
23078;SDS011;11707;50.830;4.364;2022-11-12T07:25:04;9.00;;;5.30;;
23078;SDS011;11707;50.830;4.364;2022-11-12T07:27:29;7.50;;;5.38;;
23078;SDS011;11707;50.830;4.364;2022-11-12T07:29:55;7.93;;;5.55;;
23078;SDS011;11707;50.830;4.364;2022-11-12T07:32:21;8.65;;;5.80;;
23078;SDS011;11707;50.830;4.364;2022-11-12T07:34:47;7.97;;;5.93;;
23078;SDS011;11707;50.830;4.364;2022-11-12T07:37:14;14.55;;;6.55;;
23078;SDS011;11707;50.830;4.364;2022-11-12T07:39:40;9.43;;;5.75;;
23078;SDS011;11707;50.830;4.364;2022-11-12T07:42:06;7.65;;;5.93;;
23078;SDS011;11707;50.830;4.364;2022-11-12T07:44:31;8.60;;;5.88;;
23078;SDS011;11707;50.830;4.364;2022-11-12T07:46:57;6.60;;;5.25;;
23078;SDS011;11707;50.830;4.364;2022-11-12T07:49:23;9.27;;;5.28;;
23078;SDS011;11707;50.830;4.364;2022-11-12T07:51:49;7.40;;;4.95;;
23078;SDS011;11707;50.830;4.364;2022-11-12T07:54:14;12.35;;;5.43;;
23078;SDS011;11707;50.830;4.364;2022-11-12T07:56:40;10.57;;;5.80;;
23078;SDS011;11707;50.830;4.364;2022-11-12T07:59:06;7.35;;;5.88;;
23078;SDS011;11707;50.830;4.364;2022-11-12T08:01:32;11.32;;;5.30;;
23078;SDS011;11707;50.830;4.364;2022-11-12T08:04:00;7.47;;;5.50;;
23078;SDS011;11707;50.830;4.364;2022-11-12T08:06:27;6.82;;;5.25;;
23078;SDS011;11707;50.830;4.364;2022-11-12T08:08:54;8.77;;;5.53;;
23078;SDS011;11707;50.830;4.364;2022-11-12T08:11:21;9.55;;;7.43;;
23078;SDS011;11707;50.830;4.364;2022-11-12T08:13:47;10.95;;;6.45;;
23078;SDS011;11707;50.830;4.364;2022-11-12T08:16:13;9.07;;;5.70;;
23078;SDS011;11707;50.830;4.364;2022-11-12T08:18:40;8.05;;;5.70;;
23078;SDS011;11707;50.830;4.364;2022-11-12T08:21:06;8.07;;;5.90;;
23078;SDS011;11707;50.830;4.364;2022-11-12T08:23:36;6.43;;;4.93;;
23078;SDS011;11707;50.830;4.364;2022-11-12T08:26:03;7.82;;;4.97;;
23078;SDS011;11707;50.830;4.364;2022-11-12T08:28:31;8.23;;;5.20;;
23078;SDS011;11707;50.830;4.364;2022-11-12T08:31:01;10.70;;;5.40;;
23078;SDS011;11707;50.830;4.364;2022-11-12T08:33:29;8.98;;;5.25;;
23078;SDS011;11707;50.830;4.364;2022-11-12T08:35:54;5.97;;;4.65;;
23078;SDS011;11707;50.830;4.364;2022-11-12T08:38:20;5.55;;;4.30;;
23078;SDS011;11707;50.830;4.364;2022-11-12T08:40:46;6.38;;;4.78;;
23078;SDS011;11707;50.830;4.364;2022-11-12T08:43:12;7.85;;;4.47;;
23078;SDS011;11707;50.830;4.364;2022-11-12T08:45:38;9.05;;;5.00;;
23078;SDS011;11707;50.830;4.364;2022-11-12T08:48:09;6.25;;;4.25;;
23078;SDS011;11707;50.830;4.364;2022-11-12T08:50:37;14.27;;;4.00;;
23078;SDS011;11707;50.830;4.364;2022-11-12T08:53:07;4.55;;;3.63;;
23078;SDS011;11707;50.830;4.364;2022-11-12T08:55:34;4.75;;;3.20;;
23078;SDS011;11707;50.830;4.364;2022-11-12T08:58:00;6.63;;;3.42;;
23078;SDS011;11707;50.830;4.364;2022-11-12T09:00:28;4.85;;;3.17;;
23078;SDS011;11707;50.830;4.364;2022-11-12T09:03:03;5.03;;;3.45;;
23078;SDS011;11707;50.830;4.364;2022-11-12T09:05:30;4.63;;;3.22;;
23078;SDS011;11707;50.830;4.364;2022-11-12T09:08:00;6.07;;;3.25;;
23078;SDS011;11707;50.830;4.364;2022-11-12T09:10:30;5.68;;;3.00;;
23078;SDS011;11707;50.830;4.364;2022-11-12T09:12:57;6.47;;;2.50;;
23078;SDS011;11707;50.830;4.364;2022-11-12T09:15:23;4.72;;;2.30;;
23078;SDS011;11707;50.830;4.364;2022-11-12T09:17:56;4.28;;;2.78;;
23078;SDS011;11707;50.830;4.364;2022-11-12T09:20:23;4.57;;;3.15;;
23078;SDS011;11707;50.830;4.364;2022-11-12T09:22:50;5.47;;;2.70;;
23078;SDS011;11707;50.830;4.364;2022-11-12T09:25:16;3.15;;;2.40;;
23078;SDS011;11707;50.830;4.364;2022-11-12T09:27:42;3.38;;;2.33;;
23078;SDS011;11707;50.830;4.364;2022-11-12T09:30:08;4.38;;;2.60;;
23078;SDS011;11707;50.830;4.364;2022-11-12T09:32:34;6.05;;;2.70;;
23078;SDS011;11707;50.830;4.364;2022-11-12T09:35:00;5.00;;;2.50;;
23078;SDS011;11707;50.830;4.364;2022-11-12T09:37:26;3.92;;;2.30;;
23078;SDS011;11707;50.830;4.364;2022-11-12T09:39:51;5.05;;;3.05;;
23078;SDS011;11707;50.830;4.364;2022-11-12T09:42:21;4.70;;;2.90;;
23078;SDS011;11707;50.830;4.364;2022-11-12T09:45:06;5.00;;;2.90;;
23078;SDS011;11707;50.830;4.364;2022-11-12T09:47:46;3.63;;;2.33;;
23078;SDS011;11707;50.830;4.364;2022-11-12T09:52:41;7.82;;;3.10;;
23078;SDS011;11707;50.830;4.364;2022-11-12T09:55:13;4.05;;;3.13;;
23078;SDS011;11707;50.830;4.364;2022-11-12T09:57:55;6.25;;;3.15;;
23078;SDS011;11707;50.830;4.364;2022-11-12T10:00:21;6.72;;;3.17;;
23078;SDS011;11707;50.830;4.364;2022-11-12T10:03:00;5.65;;;3.35;;
23078;SDS011;11707;50.830;4.364;2022-11-12T10:05:59;4.90;;;3.08;;
23078;SDS011;11707;50.830;4.364;2022-11-12T10:08:49;5.25;;;3.03;;
23078;SDS011;11707;50.830;4.364;2022-11-12T10:17:33;5.78;;;3.38;;
23078;SDS011;11707;50.830;4.364;2022-11-12T10:20:25;6.25;;;3.50;;
23078;SDS011;11707;50.830;4.364;2022-11-12T10:23:13;6.70;;;4.20;;
23078;SDS011;11707;50.830;4.364;2022-11-12T10:25:45;4.80;;;3.55;;
23078;SDS011;11707;50.830;4.364;2022-11-12T10:28:23;7.72;;;3.88;;
23078;SDS011;11707;50.830;4.364;2022-11-12T10:30:55;6.25;;;3.97;;
23078;SDS011;11707;50.830;4.364;2022-11-12T10:33:28;4.28;;;2.90;;
23078;SDS011;11707;50.830;4.364;2022-11-12T10:35:56;7.18;;;3.60;;
23078;SDS011;11707;50.830;4.364;2022-11-12T10:38:46;10.35;;;3.70;;
23078;SDS011;11707;50.830;4.364;2022-11-12T10:41:27;5.72;;;3.45;;
23078;SDS011;11707;50.830;4.364;2022-11-12T10:44:02;7.72;;;3.63;;
23078;SDS011;11707;50.830;4.364;2022-11-12T10:46:30;4.63;;;3.15;;
23078;SDS011;11707;50.830;4.364;2022-11-12T10:49:06;10.32;;;3.97;;
23078;SDS011;11707;50.830;4.364;2022-11-12T10:51:35;8.32;;;3.85;;
23078;SDS011;11707;50.830;4.364;2022-11-12T10:54:27;7.80;;;3.40;;
23078;SDS011;11707;50.830;4.364;2022-11-12T10:57:20;7.30;;;3.80;;
23078;SDS011;11707;50.830;4.364;2022-11-12T11:00:04;4.95;;;3.35;;
23078;SDS011;11707;50.830;4.364;2022-11-12T11:02:32;5.25;;;3.60;;
23078;SDS011;11707;50.830;4.364;2022-11-12T11:04:58;6.60;;;3.55;;
23078;SDS011;11707;50.830;4.364;2022-11-12T11:07:24;5.50;;;3.10;;
23078;SDS011;11707;50.830;4.364;2022-11-12T11:09:51;8.80;;;3.72;;
23078;SDS011;11707;50.830;4.364;2022-11-12T11:12:29;7.93;;;3.22;;
23078;SDS011;11707;50.830;4.364;2022-11-12T11:20:15;6.10;;;3.63;;
23078;SDS011;11707;50.830;4.364;2022-11-12T11:22:53;7.47;;;4.20;;
23078;SDS011;11707;50.830;4.364;2022-11-12T11:25:24;6.07;;;3.60;;
23078;SDS011;11707;50.830;4.364;2022-11-12T11:28:00;8.18;;;3.63;;
23078;SDS011;11707;50.830;4.364;2022-11-12T11:30:37;6.20;;;4.18;;
23078;SDS011;11707;50.830;4.364;2022-11-12T11:33:47;5.38;;;3.15;;
23078;SDS011;11707;50.830;4.364;2022-11-12T11:36:45;7.07;;;4.10;;
23078;SDS011;11707;50.830;4.364;2022-11-12T11:39:20;6.55;;;3.63;;
23078;SDS011;11707;50.830;4.364;2022-11-12T11:45:01;10.35;;;3.45;;
23078;SDS011;11707;50.830;4.364;2022-11-12T11:50:19;8.40;;;4.07;;
23078;SDS011;11707;50.830;4.364;2022-11-12T11:55:53;6.38;;;4.10;;
23078;SDS011;11707;50.830;4.364;2022-11-12T12:01:16;5.00;;;3.75;;
23078;SDS011;11707;50.830;4.364;2022-11-12T12:06:31;6.68;;;4.00;;
23078;SDS011;11707;50.830;4.364;2022-11-12T12:09:16;6.05;;;3.55;;
23078;SDS011;11707;50.830;4.364;2022-11-12T12:12:03;6.88;;;3.80;;
23078;SDS011;11707;50.830;4.364;2022-11-12T12:20:52;6.68;;;3.97;;
23078;SDS011;11707;50.830;4.364;2022-11-12T12:23:48;6.53;;;4.20;;
23078;SDS011;11707;50.830;4.364;2022-11-12T12:26:20;7.00;;;4.22;;
23078;SDS011;11707;50.830;4.364;2022-11-12T12:31:51;4.97;;;4.17;;
23078;SDS011;11707;50.830;4.364;2022-11-12T12:34:27;5.90;;;3.92;;
23078;SDS011;11707;50.830;4.364;2022-11-12T12:37:32;12.23;;;4.85;;
23078;SDS011;11707;50.830;4.364;2022-11-12T12:40:03;9.85;;;4.53;;
23078;SDS011;11707;50.830;4.364;2022-11-12T12:42:47;7.28;;;4.15;;
23078;SDS011;11707;50.830;4.364;2022-11-12T12:45:23;5.65;;;3.83;;
23078;SDS011;11707;50.830;4.364;2022-11-12T12:48:04;4.57;;;3.35;;
23078;SDS011;11707;50.830;4.364;2022-11-12T12:50:37;8.60;;;3.80;;
23078;SDS011;11707;50.830;4.364;2022-11-12T12:55:44;8.65;;;4.10;;
23078;SDS011;11707;50.830;4.364;2022-11-12T12:58:18;8.30;;;4.15;;
23078;SDS011;11707;50.830;4.364;2022-11-12T13:00:52;8.95;;;4.40;;
23078;SDS011;11707;50.830;4.364;2022-11-12T13:03:57;6.70;;;3.85;;
23078;SDS011;11707;50.830;4.364;2022-11-12T13:06:27;6.95;;;3.78;;
23078;SDS011;11707;50.830;4.364;2022-11-12T13:20:15;8.73;;;3.97;;
23078;SDS011;11707;50.830;4.364;2022-11-12T13:24:59;10.27;;;6.68;;
23078;SDS011;11707;50.830;4.364;2022-11-12T13:30:55;15.38;;;12.65;;
23078;SDS011;11707;50.830;4.364;2022-11-12T13:32:56;7.68;;;5.05;;
23078;SDS011;11707;50.830;4.364;2022-11-12T13:43:44;3.13;;;2.67;;
23078;SDS011;11707;50.830;4.364;2022-11-12T13:46:26;3.83;;;2.42;;
23078;SDS011;11707;50.830;4.364;2022-11-12T13:53:52;5.15;;;3.00;;
23078;SDS011;11707;50.830;4.364;2022-11-12T13:56:29;3.97;;;2.20;;
23078;SDS011;11707;50.830;4.364;2022-11-12T13:59:15;7.53;;;4.22;;
23078;SDS011;11707;50.830;4.364;2022-11-12T14:01:43;6.63;;;3.08;;
23078;SDS011;11707;50.830;4.364;2022-11-12T14:04:10;6.78;;;2.92;;
23078;SDS011;11707;50.830;4.364;2022-11-12T14:06:46;5.95;;;2.90;;
23078;SDS011;11707;50.830;4.364;2022-11-12T14:09:26;5.13;;;2.83;;
23078;SDS011;11707;50.830;4.364;2022-11-12T14:20:31;11.73;;;3.58;;
23078;SDS011;11707;50.830;4.364;2022-11-12T14:23:03;7.63;;;2.63;;
23078;SDS011;11707;50.830;4.364;2022-11-12T14:25:49;8.60;;;2.97;;
23078;SDS011;11707;50.830;4.364;2022-11-12T14:28:32;6.78;;;3.78;;
23078;SDS011;11707;50.830;4.364;2022-11-12T14:31:00;6.03;;;3.08;;
23078;SDS011;11707;50.830;4.364;2022-11-12T14:33:27;6.03;;;3.08;;
23078;SDS011;11707;50.830;4.364;2022-11-12T14:36:01;6.18;;;3.67;;
23078;SDS011;11707;50.830;4.364;2022-11-12T14:38:30;9.70;;;2.80;;
23078;SDS011;11707;50.830;4.364;2022-11-12T14:41:14;5.80;;;3.20;;
23078;SDS011;11707;50.830;4.364;2022-11-12T14:43:48;7.22;;;2.78;;
23078;SDS011;11707;50.830;4.364;2022-11-12T14:48:50;7.22;;;3.10;;
23078;SDS011;11707;50.830;4.364;2022-11-12T14:51:37;5.78;;;2.83;;
23078;SDS011;11707;50.830;4.364;2022-11-12T14:54:09;6.97;;;2.90;;
23078;SDS011;11707;50.830;4.364;2022-11-12T14:56:43;7.18;;;3.45;;
23078;SDS011;11707;50.830;4.364;2022-11-12T14:59:12;6.97;;;3.63;;
23078;SDS011;11707;50.830;4.364;2022-11-12T15:01:40;7.53;;;2.35;;
23078;SDS011;11707;50.830;4.364;2022-11-12T15:04:40;7.25;;;2.78;;
23078;SDS011;11707;50.830;4.364;2022-11-12T15:08:26;5.65;;;3.42;;
23078;SDS011;11707;50.830;4.364;2022-11-12T15:10:32;6.22;;;3.13;;
23078;SDS011;11707;50.830;4.364;2022-11-12T15:15:57;11.35;;;3.92;;
23078;SDS011;11707;50.830;4.364;2022-11-12T15:18:31;9.57;;;4.03;;
23078;SDS011;11707;50.830;4.364;2022-11-12T15:21:05;5.75;;;3.85;;
23078;SDS011;11707;50.830;4.364;2022-11-12T15:23:31;6.45;;;3.25;;
23078;SDS011;11707;50.830;4.364;2022-11-12T15:25:57;6.82;;;3.58;;
23078;SDS011;11707;50.830;4.364;2022-11-12T15:28:24;8.00;;;4.32;;
23078;SDS011;11707;50.830;4.364;2022-11-12T15:33:45;8.20;;;4.60;;
23078;SDS011;11707;50.830;4.364;2022-11-12T15:36:15;10.20;;;5.57;;
23078;SDS011;11707;50.830;4.364;2022-11-12T15:38:50;19.63;;;8.35;;
23078;SDS011;11707;50.830;4.364;2022-11-12T15:41:19;15.40;;;6.13;;
23078;SDS011;11707;50.830;4.364;2022-11-12T15:43:51;10.77;;;5.80;;
23078;SDS011;11707;50.830;4.364;2022-11-12T15:46:17;11.05;;;5.55;;
23078;SDS011;11707;50.830;4.364;2022-11-12T15:48:43;12.77;;;6.13;;
23078;SDS011;11707;50.830;4.364;2022-11-12T15:51:09;9.73;;;4.88;;
23078;SDS011;11707;50.830;4.364;2022-11-12T15:53:35;9.25;;;5.18;;
23078;SDS011;11707;50.830;4.364;2022-11-12T15:56:02;9.23;;;5.22;;
23078;SDS011;11707;50.830;4.364;2022-11-12T15:58:29;10.00;;;4.82;;
23078;SDS011;11707;50.830;4.364;2022-11-12T16:00:57;8.43;;;5.55;;
23078;SDS011;11707;50.830;4.364;2022-11-12T16:03:23;10.93;;;5.50;;
23078;SDS011;11707;50.830;4.364;2022-11-12T16:05:49;12.98;;;5.93;;
23078;SDS011;11707;50.830;4.364;2022-11-12T16:08:15;10.95;;;6.47;;
23078;SDS011;11707;50.830;4.364;2022-11-12T16:10:42;14.93;;;6.68;;
23078;SDS011;11707;50.830;4.364;2022-11-12T16:13:13;12.98;;;6.10;;
23078;SDS011;11707;50.830;4.364;2022-11-12T16:15:53;9.10;;;5.30;;
23078;SDS011;11707;50.830;4.364;2022-11-12T16:18:19;8.95;;;4.88;;
23078;SDS011;11707;50.830;4.364;2022-11-12T16:20:45;10.23;;;5.00;;
23078;SDS011;11707;50.830;4.364;2022-11-12T16:23:12;8.57;;;5.22;;
23078;SDS011;11707;50.830;4.364;2022-11-12T16:25:39;9.55;;;5.78;;
23078;SDS011;11707;50.830;4.364;2022-11-12T16:28:13;13.07;;;7.82;;
23078;SDS011;11707;50.830;4.364;2022-11-12T16:30:41;17.48;;;7.82;;
23078;SDS011;11707;50.830;4.364;2022-11-12T16:33:11;15.95;;;7.50;;
23078;SDS011;11707;50.830;4.364;2022-11-12T16:35:37;12.27;;;7.88;;
23078;SDS011;11707;50.830;4.364;2022-11-12T16:38:09;12.25;;;7.30;;
23078;SDS011;11707;50.830;4.364;2022-11-12T16:40:40;10.65;;;7.80;;
23078;SDS011;11707;50.830;4.364;2022-11-12T16:43:07;16.27;;;7.07;;
23078;SDS011;11707;50.830;4.364;2022-11-12T16:45:33;16.15;;;7.50;;